sensor_id;sensor_type;location;lat;lon;timestamp;P1;durP1;ratioP1;P2;durP2;ratioP2
73428;SDS011;61643;49.564;17.412;2023-03-01T00:01:37;23.00;;;9.80;;
73428;SDS011;61643;49.564;17.412;2023-03-01T00:04:03;24.10;;;9.65;;
73428;SDS011;61643;49.564;17.412;2023-03-01T00:06:28;22.50;;;9.80;;
73428;SDS011;61643;49.564;17.412;2023-03-01T00:08:54;25.27;;;10.63;;
73428;SDS011;61643;49.564;17.412;2023-03-01T00:11:22;25.05;;;10.77;;
73428;SDS011;61643;49.564;17.412;2023-03-01T00:13:51;23.58;;;10.48;;
73428;SDS011;61643;49.564;17.412;2023-03-01T00:16:22;30.30;;;11.15;;
73428;SDS011;61643;49.564;17.412;2023-03-01T00:18:50;24.88;;;10.40;;
73428;SDS011;61643;49.564;17.412;2023-03-01T00:21:17;28.50;;;11.65;;
73428;SDS011;61643;49.564;17.412;2023-03-01T00:23:43;28.88;;;11.43;;
73428;SDS011;61643;49.564;17.412;2023-03-01T00:26:10;28.15;;;11.25;;
73428;SDS011;61643;49.564;17.412;2023-03-01T00:28:38;24.05;;;10.60;;
73428;SDS011;61643;49.564;17.412;2023-03-01T00:33:35;23.45;;;10.20;;
73428;SDS011;61643;49.564;17.412;2023-03-01T00:36:01;26.20;;;10.40;;
73428;SDS011;61643;49.564;17.412;2023-03-01T00:38:28;23.10;;;10.40;;
73428;SDS011;61643;49.564;17.412;2023-03-01T00:40:54;23.60;;;10.50;;
73428;SDS011;61643;49.564;17.412;2023-03-01T00:43:20;28.17;;;10.43;;
73428;SDS011;61643;49.564;17.412;2023-03-01T00:45:47;26.92;;;10.60;;
73428;SDS011;61643;49.564;17.412;2023-03-01T00:48:13;28.65;;;10.90;;
73428;SDS011;61643;49.564;17.412;2023-03-01T00:50:38;31.35;;;12.00;;
73428;SDS011;61643;49.564;17.412;2023-03-01T00:53:04;24.00;;;10.80;;
73428;SDS011;61643;49.564;17.412;2023-03-01T00:55:30;26.70;;;10.82;;
73428;SDS011;61643;49.564;17.412;2023-03-01T00:57:56;24.27;;;9.68;;
73428;SDS011;61643;49.564;17.412;2023-03-01T01:00:22;28.55;;;10.93;;
73428;SDS011;61643;49.564;17.412;2023-03-01T01:02:48;22.92;;;10.18;;
73428;SDS011;61643;49.564;17.412;2023-03-01T01:05:14;26.13;;;10.82;;
73428;SDS011;61643;49.564;17.412;2023-03-01T01:07:46;21.70;;;10.38;;
73428;SDS011;61643;49.564;17.412;2023-03-01T01:10:13;26.73;;;10.32;;
73428;SDS011;61643;49.564;17.412;2023-03-01T01:12:43;27.05;;;10.52;;
73428;SDS011;61643;49.564;17.412;2023-03-01T01:15:10;37.42;;;12.90;;
73428;SDS011;61643;49.564;17.412;2023-03-01T01:17:39;29.92;;;11.13;;
73428;SDS011;61643;49.564;17.412;2023-03-01T01:20:06;35.03;;;13.27;;
73428;SDS011;61643;49.564;17.412;2023-03-01T01:22:33;32.00;;;11.95;;
73428;SDS011;61643;49.564;17.412;2023-03-01T01:24:58;31.02;;;12.68;;
73428;SDS011;61643;49.564;17.412;2023-03-01T01:27:24;29.23;;;11.43;;
73428;SDS011;61643;49.564;17.412;2023-03-01T01:29:52;29.52;;;12.27;;
73428;SDS011;61643;49.564;17.412;2023-03-01T01:32:18;33.08;;;12.52;;
73428;SDS011;61643;49.564;17.412;2023-03-01T01:34:44;27.10;;;11.10;;
73428;SDS011;61643;49.564;17.412;2023-03-01T01:37:12;34.40;;;12.63;;
73428;SDS011;61643;49.564;17.412;2023-03-01T01:39:38;30.63;;;11.32;;
73428;SDS011;61643;49.564;17.412;2023-03-01T01:42:04;33.15;;;12.38;;
73428;SDS011;61643;49.564;17.412;2023-03-01T01:44:30;27.38;;;11.43;;
73428;SDS011;61643;49.564;17.412;2023-03-01T01:46:57;27.02;;;11.07;;
73428;SDS011;61643;49.564;17.412;2023-03-01T01:49:27;27.60;;;11.95;;
73428;SDS011;61643;49.564;17.412;2023-03-01T01:52:08;30.15;;;11.90;;
73428;SDS011;61643;49.564;17.412;2023-03-01T01:54:50;27.80;;;10.95;;
73428;SDS011;61643;49.564;17.412;2023-03-01T01:57:24;25.90;;;11.30;;
73428;SDS011;61643;49.564;17.412;2023-03-01T01:59:54;28.65;;;11.23;;
73428;SDS011;61643;49.564;17.412;2023-03-01T02:02:23;26.92;;;11.45;;
73428;SDS011;61643;49.564;17.412;2023-03-01T02:04:52;27.27;;;11.60;;
73428;SDS011;61643;49.564;17.412;2023-03-01T02:07:29;29.25;;;11.32;;
73428;SDS011;61643;49.564;17.412;2023-03-01T02:09:55;27.17;;;10.70;;
73428;SDS011;61643;49.564;17.412;2023-03-01T02:12:23;25.17;;;10.68;;
73428;SDS011;61643;49.564;17.412;2023-03-01T02:14:51;26.77;;;10.88;;
73428;SDS011;61643;49.564;17.412;2023-03-01T02:17:17;25.95;;;10.80;;
73428;SDS011;61643;49.564;17.412;2023-03-01T02:20:06;30.70;;;11.35;;
73428;SDS011;61643;49.564;17.412;2023-03-01T02:22:45;23.10;;;9.93;;
73428;SDS011;61643;49.564;17.412;2023-03-01T02:30:36;24.88;;;10.85;;
73428;SDS011;61643;49.564;17.412;2023-03-01T02:33:03;22.10;;;10.00;;
73428;SDS011;61643;49.564;17.412;2023-03-01T02:35:32;26.63;;;10.65;;
73428;SDS011;61643;49.564;17.412;2023-03-01T02:38:01;22.83;;;10.23;;
73428;SDS011;61643;49.564;17.412;2023-03-01T02:40:29;25.63;;;10.57;;
73428;SDS011;61643;49.564;17.412;2023-03-01T02:42:58;27.23;;;10.32;;
73428;SDS011;61643;49.564;17.412;2023-03-01T02:45:25;29.80;;;11.13;;
73428;SDS011;61643;49.564;17.412;2023-03-01T02:47:55;27.98;;;10.80;;
73428;SDS011;61643;49.564;17.412;2023-03-01T02:53:11;25.48;;;10.98;;
73428;SDS011;61643;49.564;17.412;2023-03-01T02:55:47;29.02;;;10.02;;
73428;SDS011;61643;49.564;17.412;2023-03-01T02:58:13;28.73;;;11.13;;
73428;SDS011;61643;49.564;17.412;2023-03-01T03:00:40;28.88;;;11.68;;
73428;SDS011;61643;49.564;17.412;2023-03-01T03:03:15;30.35;;;11.93;;
73428;SDS011;61643;49.564;17.412;2023-03-01T03:05:43;29.02;;;10.90;;
73428;SDS011;61643;49.564;17.412;2023-03-01T03:08:09;28.02;;;11.57;;
73428;SDS011;61643;49.564;17.412;2023-03-01T03:10:36;26.33;;;11.00;;
73428;SDS011;61643;49.564;17.412;2023-03-01T03:13:07;25.58;;;11.10;;
73428;SDS011;61643;49.564;17.412;2023-03-01T03:15:35;28.63;;;11.35;;
73428;SDS011;61643;49.564;17.412;2023-03-01T03:18:02;28.30;;;10.90;;
73428;SDS011;61643;49.564;17.412;2023-03-01T03:22:56;26.13;;;10.57;;
73428;SDS011;61643;49.564;17.412;2023-03-01T03:25:24;30.50;;;11.18;;
73428;SDS011;61643;49.564;17.412;2023-03-01T03:27:51;26.25;;;10.70;;
73428;SDS011;61643;49.564;17.412;2023-03-01T03:30:23;32.95;;;11.77;;
73428;SDS011;61643;49.564;17.412;2023-03-01T03:32:51;30.48;;;12.52;;
73428;SDS011;61643;49.564;17.412;2023-03-01T03:35:23;27.85;;;11.43;;
73428;SDS011;61643;49.564;17.412;2023-03-01T03:37:50;30.55;;;11.15;;
73428;SDS011;61643;49.564;17.412;2023-03-01T03:40:50;29.65;;;11.07;;
73428;SDS011;61643;49.564;17.412;2023-03-01T03:43:17;27.48;;;9.80;;
73428;SDS011;61643;49.564;17.412;2023-03-01T03:45:45;28.92;;;11.23;;
73428;SDS011;61643;49.564;17.412;2023-03-01T03:48:12;28.77;;;11.60;;
73428;SDS011;61643;49.564;17.412;2023-03-01T03:50:39;27.33;;;11.20;;
73428;SDS011;61643;49.564;17.412;2023-03-01T03:53:07;26.92;;;11.23;;
73428;SDS011;61643;49.564;17.412;2023-03-01T03:55:35;27.80;;;11.10;;
73428;SDS011;61643;49.564;17.412;2023-03-01T03:58:05;30.77;;;12.38;;
73428;SDS011;61643;49.564;17.412;2023-03-01T04:00:37;26.83;;;11.20;;
73428;SDS011;61643;49.564;17.412;2023-03-01T04:03:05;29.80;;;11.30;;
73428;SDS011;61643;49.564;17.412;2023-03-01T04:05:31;28.85;;;11.75;;
73428;SDS011;61643;49.564;17.412;2023-03-01T04:07:57;25.52;;;11.35;;
73428;SDS011;61643;49.564;17.412;2023-03-01T04:10:28;27.65;;;11.38;;
73428;SDS011;61643;49.564;17.412;2023-03-01T04:12:55;29.52;;;12.63;;
73428;SDS011;61643;49.564;17.412;2023-03-01T04:15:22;27.40;;;12.00;;
73428;SDS011;61643;49.564;17.412;2023-03-01T04:17:50;29.75;;;11.90;;
73428;SDS011;61643;49.564;17.412;2023-03-01T04:20:18;29.27;;;11.27;;
73428;SDS011;61643;49.564;17.412;2023-03-01T04:22:59;24.80;;;11.20;;
73428;SDS011;61643;49.564;17.412;2023-03-01T04:25:39;26.00;;;11.18;;
73428;SDS011;61643;49.564;17.412;2023-03-01T04:28:07;25.13;;;11.10;;
73428;SDS011;61643;49.564;17.412;2023-03-01T04:30:35;28.08;;;11.93;;
73428;SDS011;61643;49.564;17.412;2023-03-01T04:33:04;25.75;;;10.73;;
73428;SDS011;61643;49.564;17.412;2023-03-01T04:35:31;29.15;;;12.07;;
73428;SDS011;61643;49.564;17.412;2023-03-01T04:37:58;34.22;;;11.68;;
73428;SDS011;61643;49.564;17.412;2023-03-01T04:40:24;27.92;;;10.93;;
73428;SDS011;61643;49.564;17.412;2023-03-01T04:42:50;27.00;;;12.02;;
73428;SDS011;61643;49.564;17.412;2023-03-01T04:45:16;27.88;;;11.55;;
73428;SDS011;61643;49.564;17.412;2023-03-01T04:47:43;27.80;;;11.90;;
73428;SDS011;61643;49.564;17.412;2023-03-01T04:50:12;28.30;;;12.20;;
73428;SDS011;61643;49.564;17.412;2023-03-01T04:52:40;30.52;;;12.55;;
73428;SDS011;61643;49.564;17.412;2023-03-01T04:55:06;30.75;;;11.98;;
73428;SDS011;61643;49.564;17.412;2023-03-01T04:57:33;30.80;;;12.13;;
73428;SDS011;61643;49.564;17.412;2023-03-01T04:59:59;28.92;;;11.82;;
73428;SDS011;61643;49.564;17.412;2023-03-01T05:02:25;32.13;;;12.07;;
73428;SDS011;61643;49.564;17.412;2023-03-01T05:04:51;35.28;;;12.73;;
73428;SDS011;61643;49.564;17.412;2023-03-01T05:07:17;32.90;;;12.82;;
73428;SDS011;61643;49.564;17.412;2023-03-01T05:09:46;32.05;;;12.25;;
73428;SDS011;61643;49.564;17.412;2023-03-01T05:12:12;31.52;;;13.38;;
73428;SDS011;61643;49.564;17.412;2023-03-01T05:14:39;37.50;;;14.05;;
73428;SDS011;61643;49.564;17.412;2023-03-01T05:17:06;29.52;;;12.63;;
73428;SDS011;61643;49.564;17.412;2023-03-01T05:19:33;33.75;;;13.55;;
73428;SDS011;61643;49.564;17.412;2023-03-01T05:21:59;35.20;;;14.48;;
73428;SDS011;61643;49.564;17.412;2023-03-01T05:24:34;37.30;;;15.57;;
73428;SDS011;61643;49.564;17.412;2023-03-01T05:27:01;39.92;;;15.07;;
73428;SDS011;61643;49.564;17.412;2023-03-01T05:29:28;34.47;;;14.35;;
73428;SDS011;61643;49.564;17.412;2023-03-01T05:34:27;33.97;;;13.52;;
73428;SDS011;61643;49.564;17.412;2023-03-01T05:36:55;34.00;;;13.70;;
73428;SDS011;61643;49.564;17.412;2023-03-01T05:39:23;38.78;;;14.55;;
73428;SDS011;61643;49.564;17.412;2023-03-01T05:41:55;37.35;;;14.75;;
73428;SDS011;61643;49.564;17.412;2023-03-01T05:44:22;38.45;;;15.38;;
73428;SDS011;61643;49.564;17.412;2023-03-01T05:46:49;39.13;;;14.27;;
73428;SDS011;61643;49.564;17.412;2023-03-01T05:49:15;41.60;;;16.02;;
73428;SDS011;61643;49.564;17.412;2023-03-01T05:51:42;43.65;;;15.70;;
73428;SDS011;61643;49.564;17.412;2023-03-01T05:54:09;37.45;;;14.80;;
73428;SDS011;61643;49.564;17.412;2023-03-01T05:56:36;42.17;;;15.75;;
73428;SDS011;61643;49.564;17.412;2023-03-01T05:59:02;40.45;;;15.40;;
73428;SDS011;61643;49.564;17.412;2023-03-01T06:01:31;37.83;;;15.20;;
73428;SDS011;61643;49.564;17.412;2023-03-01T06:03:57;41.03;;;15.90;;
73428;SDS011;61643;49.564;17.412;2023-03-01T06:06:23;46.85;;;16.75;;
73428;SDS011;61643;49.564;17.412;2023-03-01T06:08:51;37.92;;;15.48;;
73428;SDS011;61643;49.564;17.412;2023-03-01T06:11:17;39.50;;;14.43;;
73428;SDS011;61643;49.564;17.412;2023-03-01T06:13:43;41.25;;;15.43;;
73428;SDS011;61643;49.564;17.412;2023-03-01T06:16:10;42.40;;;15.32;;
73428;SDS011;61643;49.564;17.412;2023-03-01T06:18:36;41.17;;;14.52;;
73428;SDS011;61643;49.564;17.412;2023-03-01T06:21:04;36.95;;;14.65;;
73428;SDS011;61643;49.564;17.412;2023-03-01T06:23:31;37.38;;;14.60;;
73428;SDS011;61643;49.564;17.412;2023-03-01T06:25:57;33.28;;;13.73;;
73428;SDS011;61643;49.564;17.412;2023-03-01T06:28:23;37.28;;;14.68;;
73428;SDS011;61643;49.564;17.412;2023-03-01T06:30:49;39.13;;;14.52;;
73428;SDS011;61643;49.564;17.412;2023-03-01T06:33:15;39.22;;;14.13;;
73428;SDS011;61643;49.564;17.412;2023-03-01T06:35:41;37.00;;;14.70;;
73428;SDS011;61643;49.564;17.412;2023-03-01T06:38:07;35.72;;;13.90;;
73428;SDS011;61643;49.564;17.412;2023-03-01T06:40:33;37.90;;;14.95;;
73428;SDS011;61643;49.564;17.412;2023-03-01T06:43:00;40.00;;;15.40;;
73428;SDS011;61643;49.564;17.412;2023-03-01T06:45:26;43.95;;;16.83;;
73428;SDS011;61643;49.564;17.412;2023-03-01T06:47:57;42.03;;;15.27;;
73428;SDS011;61643;49.564;17.412;2023-03-01T06:50:28;38.80;;;14.80;;
73428;SDS011;61643;49.564;17.412;2023-03-01T06:52:57;43.67;;;16.42;;
73428;SDS011;61643;49.564;17.412;2023-03-01T06:55:23;46.45;;;17.80;;
73428;SDS011;61643;49.564;17.412;2023-03-01T06:57:53;60.33;;;21.48;;
73428;SDS011;61643;49.564;17.412;2023-03-01T07:00:20;56.55;;;19.45;;
73428;SDS011;61643;49.564;17.412;2023-03-01T07:02:47;49.80;;;19.58;;
73428;SDS011;61643;49.564;17.412;2023-03-01T07:05:13;42.22;;;16.20;;
73428;SDS011;61643;49.564;17.412;2023-03-01T07:07:39;34.80;;;14.77;;
73428;SDS011;61643;49.564;17.412;2023-03-01T07:10:05;36.85;;;14.05;;
73428;SDS011;61643;49.564;17.412;2023-03-01T07:12:32;41.45;;;16.27;;
73428;SDS011;61643;49.564;17.412;2023-03-01T07:14:58;36.50;;;14.48;;
73428;SDS011;61643;49.564;17.412;2023-03-01T07:17:24;36.13;;;13.43;;
73428;SDS011;61643;49.564;17.412;2023-03-01T07:19:49;32.78;;;13.35;;
73428;SDS011;61643;49.564;17.412;2023-03-01T07:22:15;35.25;;;14.55;;
73428;SDS011;61643;49.564;17.412;2023-03-01T07:24:42;34.88;;;14.38;;
73428;SDS011;61643;49.564;17.412;2023-03-01T07:27:09;30.05;;;13.05;;
73428;SDS011;61643;49.564;17.412;2023-03-01T07:29:35;33.58;;;13.60;;
73428;SDS011;61643;49.564;17.412;2023-03-01T07:32:02;36.67;;;13.85;;
73428;SDS011;61643;49.564;17.412;2023-03-01T07:34:29;33.17;;;12.07;;
73428;SDS011;61643;49.564;17.412;2023-03-01T07:36:55;37.70;;;13.93;;
73428;SDS011;61643;49.564;17.412;2023-03-01T07:39:21;32.10;;;14.10;;
73428;SDS011;61643;49.564;17.412;2023-03-01T07:41:49;31.98;;;13.57;;
73428;SDS011;61643;49.564;17.412;2023-03-01T07:44:15;32.42;;;12.73;;
73428;SDS011;61643;49.564;17.412;2023-03-01T07:46:42;34.22;;;13.52;;
73428;SDS011;61643;49.564;17.412;2023-03-01T07:49:09;33.03;;;14.07;;
73428;SDS011;61643;49.564;17.412;2023-03-01T07:51:35;29.25;;;13.27;;
73428;SDS011;61643;49.564;17.412;2023-03-01T07:54:01;32.83;;;13.43;;
73428;SDS011;61643;49.564;17.412;2023-03-01T07:56:27;34.00;;;13.85;;
73428;SDS011;61643;49.564;17.412;2023-03-01T07:58:54;33.35;;;13.55;;
73428;SDS011;61643;49.564;17.412;2023-03-01T08:01:20;31.55;;;13.15;;
73428;SDS011;61643;49.564;17.412;2023-03-01T08:03:47;32.35;;;13.02;;
73428;SDS011;61643;49.564;17.412;2023-03-01T08:06:14;31.35;;;13.57;;
73428;SDS011;61643;49.564;17.412;2023-03-01T08:08:41;31.35;;;13.55;;
73428;SDS011;61643;49.564;17.412;2023-03-01T08:11:09;33.55;;;13.52;;
73428;SDS011;61643;49.564;17.412;2023-03-01T08:13:36;30.38;;;12.88;;
73428;SDS011;61643;49.564;17.412;2023-03-01T08:16:03;38.15;;;14.88;;
73428;SDS011;61643;49.564;17.412;2023-03-01T08:18:35;31.63;;;13.02;;
73428;SDS011;61643;49.564;17.412;2023-03-01T08:21:02;31.73;;;13.52;;
73428;SDS011;61643;49.564;17.412;2023-03-01T08:23:33;32.50;;;13.57;;
73428;SDS011;61643;49.564;17.412;2023-03-01T08:26:18;27.52;;;12.63;;
73428;SDS011;61643;49.564;17.412;2023-03-01T08:28:46;34.40;;;13.18;;
73428;SDS011;61643;49.564;17.412;2023-03-01T08:31:14;31.85;;;13.02;;
73428;SDS011;61643;49.564;17.412;2023-03-01T08:33:43;28.75;;;13.63;;
73428;SDS011;61643;49.564;17.412;2023-03-01T08:36:09;30.38;;;12.75;;
73428;SDS011;61643;49.564;17.412;2023-03-01T08:38:35;30.17;;;12.63;;
73428;SDS011;61643;49.564;17.412;2023-03-01T08:41:02;31.30;;;12.95;;
73428;SDS011;61643;49.564;17.412;2023-03-01T08:43:28;36.78;;;13.82;;
73428;SDS011;61643;49.564;17.412;2023-03-01T08:45:55;28.92;;;12.73;;
73428;SDS011;61643;49.564;17.412;2023-03-01T08:48:21;28.58;;;11.63;;
73428;SDS011;61643;49.564;17.412;2023-03-01T08:50:47;26.10;;;11.70;;
73428;SDS011;61643;49.564;17.412;2023-03-01T08:53:13;25.05;;;11.15;;
73428;SDS011;61643;49.564;17.412;2023-03-01T08:55:39;31.23;;;13.15;;
73428;SDS011;61643;49.564;17.412;2023-03-01T08:58:05;26.67;;;11.48;;
73428;SDS011;61643;49.564;17.412;2023-03-01T09:00:31;29.60;;;12.20;;
73428;SDS011;61643;49.564;17.412;2023-03-01T09:03:00;27.42;;;12.40;;
73428;SDS011;61643;49.564;17.412;2023-03-01T09:05:26;29.55;;;11.82;;
73428;SDS011;61643;49.564;17.412;2023-03-01T09:07:52;29.25;;;12.18;;
73428;SDS011;61643;49.564;17.412;2023-03-01T09:10:18;38.25;;;14.57;;
73428;SDS011;61643;49.564;17.412;2023-03-01T09:12:44;35.03;;;15.30;;
73428;SDS011;61643;49.564;17.412;2023-03-01T09:15:10;36.75;;;14.13;;
73428;SDS011;61643;49.564;17.412;2023-03-01T09:17:36;35.03;;;14.80;;
73428;SDS011;61643;49.564;17.412;2023-03-01T09:20:02;33.83;;;13.90;;
73428;SDS011;61643;49.564;17.412;2023-03-01T09:24:58;38.05;;;15.00;;
73428;SDS011;61643;49.564;17.412;2023-03-01T09:27:24;36.33;;;15.27;;
73428;SDS011;61643;49.564;17.412;2023-03-01T09:29:50;32.05;;;14.55;;
73428;SDS011;61643;49.564;17.412;2023-03-01T09:32:16;32.05;;;13.75;;
73428;SDS011;61643;49.564;17.412;2023-03-01T09:34:42;31.77;;;13.65;;
73428;SDS011;61643;49.564;17.412;2023-03-01T09:37:29;30.65;;;13.70;;
73428;SDS011;61643;49.564;17.412;2023-03-01T09:39:55;34.22;;;14.57;;
73428;SDS011;61643;49.564;17.412;2023-03-01T09:42:21;33.53;;;14.20;;
73428;SDS011;61643;49.564;17.412;2023-03-01T09:44:54;34.50;;;14.20;;
73428;SDS011;61643;49.564;17.412;2023-03-01T09:47:26;33.40;;;13.52;;
73428;SDS011;61643;49.564;17.412;2023-03-01T09:55:12;32.72;;;14.25;;
73428;SDS011;61643;49.564;17.412;2023-03-01T09:57:50;30.60;;;13.25;;
73428;SDS011;61643;49.564;17.412;2023-03-01T10:03:07;34.00;;;13.90;;
73428;SDS011;61643;49.564;17.412;2023-03-01T10:06:06;29.48;;;13.65;;
73428;SDS011;61643;49.564;17.412;2023-03-01T10:08:50;30.58;;;12.40;;
73428;SDS011;61643;49.564;17.412;2023-03-01T10:11:23;34.83;;;14.82;;
73428;SDS011;61643;49.564;17.412;2023-03-01T10:13:55;34.30;;;13.55;;
73428;SDS011;61643;49.564;17.412;2023-03-01T10:24:54;30.85;;;13.82;;
73428;SDS011;61643;49.564;17.412;2023-03-01T10:27:24;37.33;;;15.82;;
73428;SDS011;61643;49.564;17.412;2023-03-01T10:32:39;29.17;;;13.15;;
73428;SDS011;61643;49.564;17.412;2023-03-01T10:35:15;31.65;;;13.73;;
73428;SDS011;61643;49.564;17.412;2023-03-01T10:40:54;30.58;;;12.38;;
73428;SDS011;61643;49.564;17.412;2023-03-01T10:43:23;28.33;;;12.13;;
73428;SDS011;61643;49.564;17.412;2023-03-01T10:45:50;26.70;;;12.38;;
73428;SDS011;61643;49.564;17.412;2023-03-01T10:48:21;27.65;;;12.82;;
73428;SDS011;61643;49.564;17.412;2023-03-01T10:53:27;27.45;;;12.05;;
73428;SDS011;61643;49.564;17.412;2023-03-01T10:58:32;31.23;;;13.07;;
73428;SDS011;61643;49.564;17.412;2023-03-01T11:01:00;31.17;;;12.65;;
73428;SDS011;61643;49.564;17.412;2023-03-01T11:03:29;30.40;;;13.25;;
73428;SDS011;61643;49.564;17.412;2023-03-01T11:08:42;27.33;;;12.73;;
73428;SDS011;61643;49.564;17.412;2023-03-01T11:16:31;28.42;;;13.02;;
73428;SDS011;61643;49.564;17.412;2023-03-01T11:19:04;28.95;;;12.90;;
73428;SDS011;61643;49.564;17.412;2023-03-01T11:21:39;27.00;;;13.02;;
73428;SDS011;61643;49.564;17.412;2023-03-01T11:24:10;31.95;;;14.27;;
73428;SDS011;61643;49.564;17.412;2023-03-01T11:26:40;27.05;;;11.75;;
73428;SDS011;61643;49.564;17.412;2023-03-01T11:29:21;29.17;;;12.63;;
73428;SDS011;61643;49.564;17.412;2023-03-01T11:32:05;27.35;;;12.93;;
73428;SDS011;61643;49.564;17.412;2023-03-01T11:37:32;27.92;;;12.77;;
73428;SDS011;61643;49.564;17.412;2023-03-01T11:45:31;25.63;;;12.30;;
73428;SDS011;61643;49.564;17.412;2023-03-01T11:50:56;27.80;;;12.57;;
73428;SDS011;61643;49.564;17.412;2023-03-01T11:56:09;27.25;;;12.90;;
73428;SDS011;61643;49.564;17.412;2023-03-01T12:01:32;26.58;;;12.27;;
73428;SDS011;61643;49.564;17.412;2023-03-01T12:06:57;28.10;;;12.27;;
73428;SDS011;61643;49.564;17.412;2023-03-01T12:09:47;30.38;;;12.18;;
73428;SDS011;61643;49.564;17.412;2023-03-01T12:42:21;29.67;;;12.98;;
73428;SDS011;61643;49.564;17.412;2023-03-01T12:50:53;27.05;;;11.75;;
73428;SDS011;61643;49.564;17.412;2023-03-01T12:55:55;24.75;;;10.82;;
73428;SDS011;61643;49.564;17.412;2023-03-01T13:11:22;25.58;;;11.85;;
73428;SDS011;61643;49.564;17.412;2023-03-01T13:13:49;25.95;;;11.68;;
73428;SDS011;61643;49.564;17.412;2023-03-01T13:19:13;24.33;;;11.38;;
73428;SDS011;61643;49.564;17.412;2023-03-01T13:21:42;24.88;;;10.07;;
73428;SDS011;61643;49.564;17.412;2023-03-01T13:32:23;20.13;;;9.93;;
73428;SDS011;61643;49.564;17.412;2023-03-01T13:45:16;23.40;;;12.02;;
73428;SDS011;61643;49.564;17.412;2023-03-01T13:47:49;19.05;;;8.50;;
73428;SDS011;61643;49.564;17.412;2023-03-01T13:50:21;24.58;;;10.07;;
73428;SDS011;61643;49.564;17.412;2023-03-01T13:52:50;25.35;;;12.52;;
73428;SDS011;61643;49.564;17.412;2023-03-01T13:55:21;29.48;;;12.98;;
73428;SDS011;61643;49.564;17.412;2023-03-01T13:57:53;25.48;;;12.48;;
73428;SDS011;61643;49.564;17.412;2023-03-01T14:03:01;26.08;;;12.02;;
73428;SDS011;61643;49.564;17.412;2023-03-01T14:05:58;27.67;;;11.98;;
73428;SDS011;61643;49.564;17.412;2023-03-01T14:08:26;29.08;;;13.20;;
73428;SDS011;61643;49.564;17.412;2023-03-01T14:10:59;29.45;;;13.13;;
73428;SDS011;61643;49.564;17.412;2023-03-01T14:19:43;43.47;;;18.02;;
73428;SDS011;61643;49.564;17.412;2023-03-01T14:24:56;43.58;;;18.42;;
73428;SDS011;61643;49.564;17.412;2023-03-01T14:27:26;37.25;;;16.80;;
73428;SDS011;61643;49.564;17.412;2023-03-01T14:29:56;36.53;;;17.48;;
73428;SDS011;61643;49.564;17.412;2023-03-01T14:32:26;45.88;;;17.95;;
73428;SDS011;61643;49.564;17.412;2023-03-01T14:34:54;40.42;;;16.95;;
73428;SDS011;61643;49.564;17.412;2023-03-01T14:39:59;44.75;;;18.98;;
73428;SDS011;61643;49.564;17.412;2023-03-01T14:42:28;40.70;;;15.93;;
73428;SDS011;61643;49.564;17.412;2023-03-01T14:44:59;38.13;;;17.60;;
73428;SDS011;61643;49.564;17.412;2023-03-01T14:47:30;43.55;;;18.27;;
73428;SDS011;61643;49.564;17.412;2023-03-01T14:49:59;42.53;;;18.25;;
73428;SDS011;61643;49.564;17.412;2023-03-01T14:52:32;46.75;;;20.23;;
73428;SDS011;61643;49.564;17.412;2023-03-01T14:55:05;41.70;;;18.95;;
73428;SDS011;61643;49.564;17.412;2023-03-01T14:57:42;35.45;;;16.13;;
73428;SDS011;61643;49.564;17.412;2023-03-01T15:00:10;43.85;;;17.55;;
73428;SDS011;61643;49.564;17.412;2023-03-01T15:02:44;41.78;;;18.50;;
73428;SDS011;61643;49.564;17.412;2023-03-01T15:05:14;46.42;;;20.17;;
73428;SDS011;61643;49.564;17.412;2023-03-01T15:07:42;38.88;;;16.33;;
73428;SDS011;61643;49.564;17.412;2023-03-01T15:10:22;38.55;;;16.65;;
73428;SDS011;61643;49.564;17.412;2023-03-01T15:12:50;39.08;;;17.50;;
73428;SDS011;61643;49.564;17.412;2023-03-01T15:15:26;39.28;;;16.98;;
73428;SDS011;61643;49.564;17.412;2023-03-01T15:18:21;36.25;;;16.98;;
73428;SDS011;61643;49.564;17.412;2023-03-01T15:20:53;37.80;;;16.50;;
73428;SDS011;61643;49.564;17.412;2023-03-01T15:23:24;40.83;;;17.40;;
73428;SDS011;61643;49.564;17.412;2023-03-01T15:25:53;36.50;;;15.65;;
73428;SDS011;61643;49.564;17.412;2023-03-01T15:28:25;46.17;;;19.35;;
73428;SDS011;61643;49.564;17.412;2023-03-01T15:30:55;43.55;;;18.48;;
73428;SDS011;61643;49.564;17.412;2023-03-01T15:33:28;50.78;;;20.92;;
73428;SDS011;61643;49.564;17.412;2023-03-01T15:35:57;52.00;;;21.15;;
73428;SDS011;61643;49.564;17.412;2023-03-01T15:40:56;59.22;;;23.83;;
73428;SDS011;61643;49.564;17.412;2023-03-01T15:43:40;65.70;;;24.98;;
73428;SDS011;61643;49.564;17.412;2023-03-01T15:48:58;40.33;;;17.83;;
73428;SDS011;61643;49.564;17.412;2023-03-01T15:51:36;40.45;;;17.88;;
73428;SDS011;61643;49.564;17.412;2023-03-01T15:54:09;75.10;;;31.02;;
73428;SDS011;61643;49.564;17.412;2023-03-01T15:56:43;56.15;;;23.05;;
73428;SDS011;61643;49.564;17.412;2023-03-01T15:59:10;41.90;;;19.20;;
73428;SDS011;61643;49.564;17.412;2023-03-01T16:01:39;46.05;;;19.80;;
73428;SDS011;61643;49.564;17.412;2023-03-01T16:04:09;45.80;;;20.23;;
73428;SDS011;61643;49.564;17.412;2023-03-01T16:06:38;54.25;;;23.85;;
73428;SDS011;61643;49.564;17.412;2023-03-01T16:09:04;64.60;;;26.98;;
73428;SDS011;61643;49.564;17.412;2023-03-01T16:11:30;74.50;;;32.50;;
73428;SDS011;61643;49.564;17.412;2023-03-01T16:13:58;86.38;;;35.42;;
73428;SDS011;61643;49.564;17.412;2023-03-01T16:16:24;54.10;;;23.90;;
73428;SDS011;61643;49.564;17.412;2023-03-01T16:18:49;47.75;;;20.70;;
73428;SDS011;61643;49.564;17.412;2023-03-01T16:21:18;49.85;;;21.98;;
73428;SDS011;61643;49.564;17.412;2023-03-01T16:23:46;48.47;;;20.70;;
73428;SDS011;61643;49.564;17.412;2023-03-01T16:26:12;48.83;;;20.67;;
73428;SDS011;61643;49.564;17.412;2023-03-01T16:28:40;49.28;;;20.92;;
73428;SDS011;61643;49.564;17.412;2023-03-01T16:31:07;45.63;;;21.88;;
73428;SDS011;61643;49.564;17.412;2023-03-01T16:33:33;36.88;;;16.17;;
73428;SDS011;61643;49.564;17.412;2023-03-01T16:36:00;40.67;;;17.25;;
73428;SDS011;61643;49.564;17.412;2023-03-01T16:38:33;45.17;;;19.45;;
73428;SDS011;61643;49.564;17.412;2023-03-01T16:41:00;55.17;;;23.70;;
73428;SDS011;61643;49.564;17.412;2023-03-01T16:43:26;57.60;;;24.48;;
73428;SDS011;61643;49.564;17.412;2023-03-01T16:45:52;55.67;;;24.52;;
73428;SDS011;61643;49.564;17.412;2023-03-01T16:48:18;62.03;;;26.20;;
73428;SDS011;61643;49.564;17.412;2023-03-01T16:50:44;59.78;;;25.13;;
73428;SDS011;61643;49.564;17.412;2023-03-01T16:53:10;64.43;;;27.10;;
73428;SDS011;61643;49.564;17.412;2023-03-01T16:55:36;59.63;;;26.75;;
73428;SDS011;61643;49.564;17.412;2023-03-01T16:58:03;69.93;;;29.20;;
73428;SDS011;61643;49.564;17.412;2023-03-01T17:00:29;63.47;;;27.75;;
73428;SDS011;61643;49.564;17.412;2023-03-01T17:02:55;60.50;;;26.10;;
73428;SDS011;61643;49.564;17.412;2023-03-01T17:05:21;76.15;;;29.52;;